sensor_id;sensor_type;location;lat;lon;timestamp;temperature;humidity
5118;DHT22;2578;51.622;7.046;2023-05-07T00:01:50;13.40;99.90
5118;DHT22;2578;51.622;7.046;2023-05-07T00:04:15;13.40;99.90
5118;DHT22;2578;51.622;7.046;2023-05-07T00:06:41;13.40;99.90
5118;DHT22;2578;51.622;7.046;2023-05-07T00:09:07;13.30;99.90
5118;DHT22;2578;51.622;7.046;2023-05-07T00:11:33;13.30;99.90
5118;DHT22;2578;51.622;7.046;2023-05-07T00:13:59;13.30;99.90
5118;DHT22;2578;51.622;7.046;2023-05-07T00:16:25;13.30;99.90
5118;DHT22;2578;51.622;7.046;2023-05-07T00:18:52;13.40;99.90
5118;DHT22;2578;51.622;7.046;2023-05-07T00:21:17;13.40;99.90
5118;DHT22;2578;51.622;7.046;2023-05-07T00:23:43;13.70;99.90
5118;DHT22;2578;51.622;7.046;2023-05-07T00:26:09;13.50;99.90
5118;DHT22;2578;51.622;7.046;2023-05-07T00:28:34;13.50;99.90
5118;DHT22;2578;51.622;7.046;2023-05-07T00:31:00;13.50;99.90
5118;DHT22;2578;51.622;7.046;2023-05-07T00:33:25;13.50;99.90
5118;DHT22;2578;51.622;7.046;2023-05-07T00:35:52;13.60;99.90
5118;DHT22;2578;51.622;7.046;2023-05-07T00:38:19;13.70;99.90
5118;DHT22;2578;51.622;7.046;2023-05-07T00:40:45;13.70;99.90
5118;DHT22;2578;51.622;7.046;2023-05-07T00:43:10;13.70;99.90
5118;DHT22;2578;51.622;7.046;2023-05-07T00:45:36;13.70;99.90
5118;DHT22;2578;51.622;7.046;2023-05-07T00:48:02;13.80;99.90
5118;DHT22;2578;51.622;7.046;2023-05-07T00:50:29;13.90;99.90
5118;DHT22;2578;51.622;7.046;2023-05-07T00:52:55;14.00;99.90
5118;DHT22;2578;51.622;7.046;2023-05-07T00:55:22;14.00;99.90
5118;DHT22;2578;51.622;7.046;2023-05-07T00:57:47;13.90;99.90
5118;DHT22;2578;51.622;7.046;2023-05-07T01:00:14;13.90;99.90
5118;DHT22;2578;51.622;7.046;2023-05-07T01:02:40;13.90;99.90
5118;DHT22;2578;51.622;7.046;2023-05-07T01:05:07;13.90;99.90
5118;DHT22;2578;51.622;7.046;2023-05-07T01:07:34;13.80;99.90
5118;DHT22;2578;51.622;7.046;2023-05-07T01:10:01;13.80;99.90
5118;DHT22;2578;51.622;7.046;2023-05-07T01:12:28;13.80;99.90
5118;DHT22;2578;51.622;7.046;2023-05-07T01:14:55;13.80;99.90
5118;DHT22;2578;51.622;7.046;2023-05-07T01:17:20;13.70;99.90
5118;DHT22;2578;51.622;7.046;2023-05-07T01:19:46;13.70;99.90
5118;DHT22;2578;51.622;7.046;2023-05-07T01:22:15;13.70;99.90
5118;DHT22;2578;51.622;7.046;2023-05-07T01:24:42;14.00;99.90
5118;DHT22;2578;51.622;7.046;2023-05-07T01:27:08;13.80;99.90
5118;DHT22;2578;51.622;7.046;2023-05-07T01:29:33;13.80;99.90
5118;DHT22;2578;51.622;7.046;2023-05-07T01:32:00;13.70;99.90
5118;DHT22;2578;51.622;7.046;2023-05-07T01:34:30;13.70;99.90
5118;DHT22;2578;51.622;7.046;2023-05-07T01:36:57;13.60;99.90
5118;DHT22;2578;51.622;7.046;2023-05-07T01:39:27;13.70;99.90
5118;DHT22;2578;51.622;7.046;2023-05-07T01:41:55;13.70;99.90
5118;DHT22;2578;51.622;7.046;2023-05-07T01:44:22;13.70;99.90
5118;DHT22;2578;51.622;7.046;2023-05-07T01:46:49;13.70;99.90
5118;DHT22;2578;51.622;7.046;2023-05-07T01:49:15;13.70;99.90
5118;DHT22;2578;51.622;7.046;2023-05-07T01:51:41;13.70;99.90
5118;DHT22;2578;51.622;7.046;2023-05-07T01:54:07;13.80;99.90
5118;DHT22;2578;51.622;7.046;2023-05-07T01:56:33;13.70;99.90
5118;DHT22;2578;51.622;7.046;2023-05-07T01:58:59;13.70;99.90
5118;DHT22;2578;51.622;7.046;2023-05-07T02:01:25;13.70;99.90
5118;DHT22;2578;51.622;7.046;2023-05-07T02:03:50;13.70;99.90
5118;DHT22;2578;51.622;7.046;2023-05-07T02:06:16;13.70;99.90
5118;DHT22;2578;51.622;7.046;2023-05-07T02:08:41;13.80;99.90
5118;DHT22;2578;51.622;7.046;2023-05-07T02:11:07;13.70;99.90
5118;DHT22;2578;51.622;7.046;2023-05-07T02:13:33;13.60;99.90
5118;DHT22;2578;51.622;7.046;2023-05-07T02:16:02;13.70;99.90
5118;DHT22;2578;51.622;7.046;2023-05-07T02:18:28;13.60;99.90
5118;DHT22;2578;51.622;7.046;2023-05-07T02:20:54;13.60;99.90
5118;DHT22;2578;51.622;7.046;2023-05-07T02:23:20;13.70;99.90
5118;DHT22;2578;51.622;7.046;2023-05-07T02:25:45;13.70;99.90
5118;DHT22;2578;51.622;7.046;2023-05-07T02:28:11;13.80;99.90
5118;DHT22;2578;51.622;7.046;2023-05-07T02:30:37;13.80;99.90
5118;DHT22;2578;51.622;7.046;2023-05-07T02:33:03;13.70;99.90
5118;DHT22;2578;51.622;7.046;2023-05-07T02:35:29;13.80;99.90
5118;DHT22;2578;51.622;7.046;2023-05-07T02:37:54;13.90;99.90
5118;DHT22;2578;51.622;7.046;2023-05-07T02:40:20;13.70;99.90
5118;DHT22;2578;51.622;7.046;2023-05-07T02:42:46;13.70;99.90
5118;DHT22;2578;51.622;7.046;2023-05-07T02:45:11;13.70;99.90
5118;DHT22;2578;51.622;7.046;2023-05-07T02:47:37;13.60;99.90
5118;DHT22;2578;51.622;7.046;2023-05-07T02:50:03;13.60;99.90
5118;DHT22;2578;51.622;7.046;2023-05-07T02:52:29;13.60;99.90
5118;DHT22;2578;51.622;7.046;2023-05-07T02:54:54;13.50;99.90
5118;DHT22;2578;51.622;7.046;2023-05-07T02:57:20;13.60;99.90
5118;DHT22;2578;51.622;7.046;2023-05-07T02:59:45;13.60;99.90
5118;DHT22;2578;51.622;7.046;2023-05-07T03:02:11;13.60;99.90
5118;DHT22;2578;51.622;7.046;2023-05-07T03:04:37;13.80;99.90
5118;DHT22;2578;51.622;7.046;2023-05-07T03:07:03;13.60;99.90
5118;DHT22;2578;51.622;7.046;2023-05-07T03:09:28;13.60;99.90
5118;DHT22;2578;51.622;7.046;2023-05-07T03:11:54;13.50;99.90
5118;DHT22;2578;51.622;7.046;2023-05-07T03:14:19;13.50;99.90
5118;DHT22;2578;51.622;7.046;2023-05-07T03:16:45;13.40;99.90
5118;DHT22;2578;51.622;7.046;2023-05-07T03:19:11;13.40;99.90
5118;DHT22;2578;51.622;7.046;2023-05-07T03:21:37;13.40;99.90
5118;DHT22;2578;51.622;7.046;2023-05-07T03:24:02;13.50;99.90
5118;DHT22;2578;51.622;7.046;2023-05-07T03:26:28;13.50;99.90
5118;DHT22;2578;51.622;7.046;2023-05-07T03:28:54;13.60;99.90
5118;DHT22;2578;51.622;7.046;2023-05-07T03:31:20;13.50;99.90
5118;DHT22;2578;51.622;7.046;2023-05-07T03:33:56;13.50;99.90
5118;DHT22;2578;51.622;7.046;2023-05-07T03:36:23;13.50;99.90
5118;DHT22;2578;51.622;7.046;2023-05-07T03:38:49;13.40;99.90
5118;DHT22;2578;51.622;7.046;2023-05-07T03:41:15;13.40;99.90
5118;DHT22;2578;51.622;7.046;2023-05-07T03:43:41;13.50;99.90
5118;DHT22;2578;51.622;7.046;2023-05-07T03:46:07;13.40;99.90
5118;DHT22;2578;51.622;7.046;2023-05-07T03:48:32;13.50;99.90
5118;DHT22;2578;51.622;7.046;2023-05-07T03:50:58;13.40;99.90
5118;DHT22;2578;51.622;7.046;2023-05-07T03:53:24;13.40;99.90
5118;DHT22;2578;51.622;7.046;2023-05-07T03:55:49;13.30;99.90
5118;DHT22;2578;51.622;7.046;2023-05-07T03:58:15;13.30;99.90
5118;DHT22;2578;51.622;7.046;2023-05-07T04:00:41;13.40;99.90
5118;DHT22;2578;51.622;7.046;2023-05-07T04:03:07;13.30;99.90
5118;DHT22;2578;51.622;7.046;2023-05-07T04:05:33;13.20;99.90
5118;DHT22;2578;51.622;7.046;2023-05-07T04:07:59;13.20;99.90
5118;DHT22;2578;51.622;7.046;2023-05-07T04:10:25;13.20;99.90
5118;DHT22;2578;51.622;7.046;2023-05-07T04:12:50;13.20;99.90
5118;DHT22;2578;51.622;7.046;2023-05-07T04:15:16;13.30;99.90
5118;DHT22;2578;51.622;7.046;2023-05-07T04:17:42;13.20;99.90
5118;DHT22;2578;51.622;7.046;2023-05-07T04:20:14;13.20;99.90
5118;DHT22;2578;51.622;7.046;2023-05-07T04:22:40;13.20;99.90
5118;DHT22;2578;51.622;7.046;2023-05-07T04:25:06;13.30;99.90
5118;DHT22;2578;51.622;7.046;2023-05-07T04:27:33;13.20;99.90
5118;DHT22;2578;51.622;7.046;2023-05-07T04:29:58;13.30;99.90
5118;DHT22;2578;51.622;7.046;2023-05-07T04:32:26;13.30;99.90
5118;DHT22;2578;51.622;7.046;2023-05-07T04:34:51;13.50;99.90
5118;DHT22;2578;51.622;7.046;2023-05-07T04:37:17;13.40;99.90
5118;DHT22;2578;51.622;7.046;2023-05-07T04:42:09;13.50;99.90
5118;DHT22;2578;51.622;7.046;2023-05-07T04:44:35;13.50;99.90
5118;DHT22;2578;51.622;7.046;2023-05-07T04:47:02;13.60;99.90
5118;DHT22;2578;51.622;7.046;2023-05-07T04:49:28;13.70;99.90
5118;DHT22;2578;51.622;7.046;2023-05-07T04:51:53;13.90;99.90
5118;DHT22;2578;51.622;7.046;2023-05-07T04:54:19;13.90;99.90
5118;DHT22;2578;51.622;7.046;2023-05-07T04:56:45;14.00;99.90
5118;DHT22;2578;51.622;7.046;2023-05-07T04:59:10;14.20;99.90
5118;DHT22;2578;51.622;7.046;2023-05-07T05:01:36;14.30;99.90
5118;DHT22;2578;51.622;7.046;2023-05-07T05:04:01;14.30;99.90
5118;DHT22;2578;51.622;7.046;2023-05-07T05:06:27;14.30;99.90
5118;DHT22;2578;51.622;7.046;2023-05-07T05:08:52;14.40;99.90
5118;DHT22;2578;51.622;7.046;2023-05-07T05:11:18;14.50;99.90
5118;DHT22;2578;51.622;7.046;2023-05-07T05:13:44;14.60;99.90
5118;DHT22;2578;51.622;7.046;2023-05-07T05:16:09;14.80;99.90
5118;DHT22;2578;51.622;7.046;2023-05-07T05:18:35;14.80;99.90
5118;DHT22;2578;51.622;7.046;2023-05-07T05:21:01;14.70;99.90
5118;DHT22;2578;51.622;7.046;2023-05-07T05:23:27;14.70;99.90
5118;DHT22;2578;51.622;7.046;2023-05-07T05:25:56;14.70;99.90
5118;DHT22;2578;51.622;7.046;2023-05-07T05:28:23;14.70;99.90
5118;DHT22;2578;51.622;7.046;2023-05-07T05:30:49;14.80;99.90
5118;DHT22;2578;51.622;7.046;2023-05-07T05:33:15;14.80;99.90
5118;DHT22;2578;51.622;7.046;2023-05-07T05:35:41;14.90;99.90
5118;DHT22;2578;51.622;7.046;2023-05-07T05:38:07;15.20;99.90
5118;DHT22;2578;51.622;7.046;2023-05-07T05:40:33;15.60;99.90
5118;DHT22;2578;51.622;7.046;2023-05-07T05:42:59;15.70;99.90
5118;DHT22;2578;51.622;7.046;2023-05-07T05:45:25;15.80;99.90
5118;DHT22;2578;51.622;7.046;2023-05-07T05:47:50;16.00;99.90
5118;DHT22;2578;51.622;7.046;2023-05-07T05:50:16;16.40;99.90
5118;DHT22;2578;51.622;7.046;2023-05-07T05:52:42;16.40;99.90
5118;DHT22;2578;51.622;7.046;2023-05-07T05:55:08;16.60;99.90
5118;DHT22;2578;51.622;7.046;2023-05-07T05:57:34;16.90;99.90
5118;DHT22;2578;51.622;7.046;2023-05-07T06:00:01;17.00;99.90
5118;DHT22;2578;51.622;7.046;2023-05-07T06:02:27;17.00;99.90
5118;DHT22;2578;51.622;7.046;2023-05-07T06:04:56;17.10;99.90
5118;DHT22;2578;51.622;7.046;2023-05-07T06:07:21;17.20;99.90
5118;DHT22;2578;51.622;7.046;2023-05-07T06:09:47;17.50;99.90
5118;DHT22;2578;51.622;7.046;2023-05-07T06:12:12;17.50;71.10
5118;DHT22;2578;51.622;7.046;2023-05-07T06:14:38;17.60;99.90
5118;DHT22;2578;51.622;7.046;2023-05-07T06:17:03;17.50;99.90
5118;DHT22;2578;51.622;7.046;2023-05-07T06:19:29;17.60;99.90
5118;DHT22;2578;51.622;7.046;2023-05-07T06:21:54;17.50;99.90
5118;DHT22;2578;51.622;7.046;2023-05-07T06:24:22;17.40;99.90
5118;DHT22;2578;51.622;7.046;2023-05-07T06:26:48;17.30;99.90
5118;DHT22;2578;51.622;7.046;2023-05-07T06:29:13;17.00;99.90
5118;DHT22;2578;51.622;7.046;2023-05-07T06:31:39;16.90;1.00
5118;DHT22;2578;51.622;7.046;2023-05-07T06:34:05;16.90;99.90
5118;DHT22;2578;51.622;7.046;2023-05-07T06:36:30;16.90;99.90
5118;DHT22;2578;51.622;7.046;2023-05-07T06:38:56;17.00;99.90
5118;DHT22;2578;51.622;7.046;2023-05-07T06:41:22;17.10;99.90
5118;DHT22;2578;51.622;7.046;2023-05-07T06:43:47;17.10;99.90
5118;DHT22;2578;51.622;7.046;2023-05-07T06:46:15;16.90;99.90
5118;DHT22;2578;51.622;7.046;2023-05-07T06:48:41;16.90;99.90
5118;DHT22;2578;51.622;7.046;2023-05-07T06:51:06;16.80;99.90
5118;DHT22;2578;51.622;7.046;2023-05-07T06:53:32;16.80;99.90
5118;DHT22;2578;51.622;7.046;2023-05-07T06:55:58;16.80;99.90
5118;DHT22;2578;51.622;7.046;2023-05-07T06:58:23;16.80;99.90
5118;DHT22;2578;51.622;7.046;2023-05-07T07:00:49;17.00;68.10
5118;DHT22;2578;51.622;7.046;2023-05-07T07:03:15;17.00;1.00
5118;DHT22;2578;51.622;7.046;2023-05-07T07:05:41;17.10;1.00
5118;DHT22;2578;51.622;7.046;2023-05-07T07:08:07;17.20;99.90
5118;DHT22;2578;51.622;7.046;2023-05-07T07:10:33;17.40;1.00
5118;DHT22;2578;51.622;7.046;2023-05-07T07:12:58;17.40;99.90
5118;DHT22;2578;51.622;7.046;2023-05-07T07:15:24;17.40;99.90
5118;DHT22;2578;51.622;7.046;2023-05-07T07:17:50;17.40;99.90
5118;DHT22;2578;51.622;7.046;2023-05-07T07:20:16;17.30;99.90
5118;DHT22;2578;51.622;7.046;2023-05-07T07:22:41;17.30;1.00
5118;DHT22;2578;51.622;7.046;2023-05-07T07:25:08;17.40;4.60
5118;DHT22;2578;51.622;7.046;2023-05-07T07:27:33;17.50;99.90
5118;DHT22;2578;51.622;7.046;2023-05-07T07:29:59;17.70;99.90
5118;DHT22;2578;51.622;7.046;2023-05-07T07:32:25;17.80;1.00
5118;DHT22;2578;51.622;7.046;2023-05-07T07:34:51;18.00;99.90
5118;DHT22;2578;51.622;7.046;2023-05-07T07:37:16;18.10;99.90
5118;DHT22;2578;51.622;7.046;2023-05-07T07:39:42;18.20;99.90
5118;DHT22;2578;51.622;7.046;2023-05-07T07:42:08;18.30;99.90
5118;DHT22;2578;51.622;7.046;2023-05-07T07:44:34;18.40;1.00
5118;DHT22;2578;51.622;7.046;2023-05-07T07:47:00;18.40;99.90
5118;DHT22;2578;51.622;7.046;2023-05-07T07:49:26;18.70;99.90
5118;DHT22;2578;51.622;7.046;2023-05-07T07:51:51;19.20;99.90
5118;DHT22;2578;51.622;7.046;2023-05-07T07:54:17;19.60;99.90
5118;DHT22;2578;51.622;7.046;2023-05-07T07:56:43;19.60;1.00
5118;DHT22;2578;51.622;7.046;2023-05-07T07:59:08;19.40;1.00
5118;DHT22;2578;51.622;7.046;2023-05-07T08:01:34;19.50;99.90
5118;DHT22;2578;51.622;7.046;2023-05-07T08:04:00;19.60;1.00
5118;DHT22;2578;51.622;7.046;2023-05-07T08:06:25;19.60;1.00
5118;DHT22;2578;51.622;7.046;2023-05-07T08:08:52;19.60;1.00
5118;DHT22;2578;51.622;7.046;2023-05-07T08:11:17;19.70;1.00
5118;DHT22;2578;51.622;7.046;2023-05-07T08:13:43;19.90;1.00
5118;DHT22;2578;51.622;7.046;2023-05-07T08:16:09;20.00;1.00
5118;DHT22;2578;51.622;7.046;2023-05-07T08:18:35;19.90;1.00
5118;DHT22;2578;51.622;7.046;2023-05-07T08:21:01;19.80;1.00
5118;DHT22;2578;51.622;7.046;2023-05-07T08:23:27;19.70;1.00
5118;DHT22;2578;51.622;7.046;2023-05-07T08:25:53;19.60;1.00
5118;DHT22;2578;51.622;7.046;2023-05-07T08:28:18;19.70;1.00
5118;DHT22;2578;51.622;7.046;2023-05-07T08:30:45;19.80;1.00
5118;DHT22;2578;51.622;7.046;2023-05-07T08:33:10;19.90;1.00
5118;DHT22;2578;51.622;7.046;2023-05-07T08:35:36;20.20;1.00
5118;DHT22;2578;51.622;7.046;2023-05-07T08:38:02;20.30;1.00
5118;DHT22;2578;51.622;7.046;2023-05-07T08:40:27;20.70;1.00
5118;DHT22;2578;51.622;7.046;2023-05-07T08:42:53;20.70;1.00
5118;DHT22;2578;51.622;7.046;2023-05-07T08:45:20;20.70;1.00
5118;DHT22;2578;51.622;7.046;2023-05-07T08:47:58;20.50;1.00
5118;DHT22;2578;51.622;7.046;2023-05-07T08:50:24;20.10;1.00
5118;DHT22;2578;51.622;7.046;2023-05-07T08:52:50;20.00;1.00
5118;DHT22;2578;51.622;7.046;2023-05-07T08:55:16;19.80;1.00
5118;DHT22;2578;51.622;7.046;2023-05-07T08:57:42;19.90;1.00
5118;DHT22;2578;51.622;7.046;2023-05-07T09:00:08;19.90;1.00
5118;DHT22;2578;51.622;7.046;2023-05-07T09:02:36;19.90;1.00
5118;DHT22;2578;51.622;7.046;2023-05-07T09:05:02;20.00;1.00
5118;DHT22;2578;51.622;7.046;2023-05-07T09:07:28;20.30;1.00
5118;DHT22;2578;51.622;7.046;2023-05-07T09:09:56;20.50;1.00
5118;DHT22;2578;51.622;7.046;2023-05-07T09:12:23;20.50;1.00
5118;DHT22;2578;51.622;7.046;2023-05-07T09:14:49;20.40;1.00
5118;DHT22;2578;51.622;7.046;2023-05-07T09:17:18;20.30;1.00
5118;DHT22;2578;51.622;7.046;2023-05-07T09:19:47;20.50;1.00
5118;DHT22;2578;51.622;7.046;2023-05-07T09:22:13;20.50;1.00
5118;DHT22;2578;51.622;7.046;2023-05-07T09:24:39;20.70;1.00
5118;DHT22;2578;51.622;7.046;2023-05-07T09:27:06;21.10;1.00
5118;DHT22;2578;51.622;7.046;2023-05-07T09:29:32;21.60;1.00
5118;DHT22;2578;51.622;7.046;2023-05-07T09:32:08;22.10;1.00
5118;DHT22;2578;51.622;7.046;2023-05-07T09:34:34;22.60;1.00
5118;DHT22;2578;51.622;7.046;2023-05-07T09:37:03;22.90;1.00
5118;DHT22;2578;51.622;7.046;2023-05-07T09:39:43;23.20;1.00
5118;DHT22;2578;51.622;7.046;2023-05-07T09:42:09;23.50;1.00
5118;DHT22;2578;51.622;7.046;2023-05-07T09:44:35;23.60;1.00
5118;DHT22;2578;51.622;7.046;2023-05-07T09:47:06;24.00;1.00
5118;DHT22;2578;51.622;7.046;2023-05-07T09:49:34;24.40;1.00
5118;DHT22;2578;51.622;7.046;2023-05-07T09:52:02;24.20;1.00
5118;DHT22;2578;51.622;7.046;2023-05-07T09:54:29;23.90;1.00
5118;DHT22;2578;51.622;7.046;2023-05-07T09:56:56;23.70;1.00
5118;DHT22;2578;51.622;7.046;2023-05-07T09:59:22;23.30;1.00
5118;DHT22;2578;51.622;7.046;2023-05-07T10:01:52;23.00;1.00
5118;DHT22;2578;51.622;7.046;2023-05-07T10:04:19;22.90;1.00
5118;DHT22;2578;51.622;7.046;2023-05-07T10:06:46;22.90;1.00
5118;DHT22;2578;51.622;7.046;2023-05-07T10:09:12;22.60;1.00
5118;DHT22;2578;51.622;7.046;2023-05-07T10:11:39;22.70;1.00
5118;DHT22;2578;51.622;7.046;2023-05-07T10:14:05;22.90;1.00
5118;DHT22;2578;51.622;7.046;2023-05-07T10:16:32;23.40;1.00
5118;DHT22;2578;51.622;7.046;2023-05-07T10:19:03;23.90;1.00
5118;DHT22;2578;51.622;7.046;2023-05-07T10:21:30;24.50;1.00
5118;DHT22;2578;51.622;7.046;2023-05-07T10:23:59;25.00;1.00
5118;DHT22;2578;51.622;7.046;2023-05-07T10:26:29;25.20;1.00
5118;DHT22;2578;51.622;7.046;2023-05-07T10:29:02;25.60;1.00
5118;DHT22;2578;51.622;7.046;2023-05-07T10:34:20;25.10;1.00
5118;DHT22;2578;51.622;7.046;2023-05-07T10:36:47;25.10;1.00
5118;DHT22;2578;51.622;7.046;2023-05-07T10:39:13;25.30;1.00
5118;DHT22;2578;51.622;7.046;2023-05-07T10:41:39;25.40;1.00
5118;DHT22;2578;51.622;7.046;2023-05-07T10:44:05;24.40;1.00
5118;DHT22;2578;51.622;7.046;2023-05-07T10:46:31;25.40;1.00
5118;DHT22;2578;51.622;7.046;2023-05-07T10:51:27;25.30;1.00
5118;DHT22;2578;51.622;7.046;2023-05-07T10:56:37;25.90;1.00
5118;DHT22;2578;51.622;7.046;2023-05-07T11:01:57;26.40;1.00
5118;DHT22;2578;51.622;7.046;2023-05-07T11:04:24;25.90;1.00
5118;DHT22;2578;51.622;7.046;2023-05-07T11:10:03;26.10;1.00
5118;DHT22;2578;51.622;7.046;2023-05-07T11:15:08;26.30;1.00
5118;DHT22;2578;51.622;7.046;2023-05-07T11:17:35;26.20;1.00
5118;DHT22;2578;51.622;7.046;2023-05-07T11:20:17;26.00;1.00
5118;DHT22;2578;51.622;7.046;2023-05-07T11:22:42;26.00;1.00
5118;DHT22;2578;51.622;7.046;2023-05-07T11:25:08;25.40;1.00
5118;DHT22;2578;51.622;7.046;2023-05-07T11:27:34;25.10;1.00
5118;DHT22;2578;51.622;7.046;2023-05-07T11:30:00;25.50;1.00
5118;DHT22;2578;51.622;7.046;2023-05-07T11:32:30;25.50;1.00
5118;DHT22;2578;51.622;7.046;2023-05-07T11:34:58;25.50;1.00
5118;DHT22;2578;51.622;7.046;2023-05-07T11:37:25;25.40;1.00
5118;DHT22;2578;51.622;7.046;2023-05-07T11:40:08;25.20;1.00
5118;DHT22;2578;51.622;7.046;2023-05-07T11:42:37;25.60;1.00
5118;DHT22;2578;51.622;7.046;2023-05-07T11:45:03;25.70;1.00
5118;DHT22;2578;51.622;7.046;2023-05-07T11:47:32;26.00;1.00
5118;DHT22;2578;51.622;7.046;2023-05-07T11:50:03;26.20;1.00
5118;DHT22;2578;51.622;7.046;2023-05-07T11:52:30;26.20;1.00
5118;DHT22;2578;51.622;7.046;2023-05-07T11:54:57;26.30;1.00
5118;DHT22;2578;51.622;7.046;2023-05-07T11:57:26;26.50;1.00
5118;DHT22;2578;51.622;7.046;2023-05-07T11:59:59;26.80;1.00
5118;DHT22;2578;51.622;7.046;2023-05-07T12:02:28;26.80;1.00
5118;DHT22;2578;51.622;7.046;2023-05-07T12:04:54;26.80;1.00
5118;DHT22;2578;51.622;7.046;2023-05-07T12:07:20;27.00;1.00
5118;DHT22;2578;51.622;7.046;2023-05-07T12:09:47;27.40;1.00
5118;DHT22;2578;51.622;7.046;2023-05-07T12:12:13;27.40;1.00
5118;DHT22;2578;51.622;7.046;2023-05-07T12:14:44;27.80;1.00
5118;DHT22;2578;51.622;7.046;2023-05-07T12:17:14;27.90;1.00
5118;DHT22;2578;51.622;7.046;2023-05-07T12:19:41;27.10;1.00
5118;DHT22;2578;51.622;7.046;2023-05-07T12:22:08;26.60;1.00
5118;DHT22;2578;51.622;7.046;2023-05-07T12:24:48;26.20;1.00
5118;DHT22;2578;51.622;7.046;2023-05-07T12:27:15;25.90;1.00
5118;DHT22;2578;51.622;7.046;2023-05-07T12:29:47;25.70;1.00
5118;DHT22;2578;51.622;7.046;2023-05-07T12:32:22;25.50;1.00
5118;DHT22;2578;51.622;7.046;2023-05-07T12:34:51;25.20;1.00
5118;DHT22;2578;51.622;7.046;2023-05-07T12:37:23;25.20;1.00
5118;DHT22;2578;51.622;7.046;2023-05-07T12:40:02;25.10;1.00
5118;DHT22;2578;51.622;7.046;2023-05-07T12:42:35;25.10;1.00
5118;DHT22;2578;51.622;7.046;2023-05-07T12:45:08;24.90;1.00
5118;DHT22;2578;51.622;7.046;2023-05-07T12:47:34;24.90;1.00
5118;DHT22;2578;51.622;7.046;2023-05-07T12:50:00;24.60;1.00
5118;DHT22;2578;51.622;7.046;2023-05-07T12:52:25;24.60;1.00
5118;DHT22;2578;51.622;7.046;2023-05-07T12:54:51;24.50;1.00
5118;DHT22;2578;51.622;7.046;2023-05-07T12:57:19;24.60;1.00
5118;DHT22;2578;51.622;7.046;2023-05-07T12:59:46;24.50;1.00
5118;DHT22;2578;51.622;7.046;2023-05-07T13:02:11;24.40;1.00
5118;DHT22;2578;51.622;7.046;2023-05-07T13:04:37;24.30;1.00
5118;DHT22;2578;51.622;7.046;2023-05-07T13:07:03;24.00;1.00
5118;DHT22;2578;51.622;7.046;2023-05-07T13:09:29;24.00;1.00
5118;DHT22;2578;51.622;7.046;2023-05-07T13:11:55;23.90;1.00
5118;DHT22;2578;51.622;7.046;2023-05-07T13:14:21;23.60;1.00
5118;DHT22;2578;51.622;7.046;2023-05-07T13:16:47;23.60;1.00
5118;DHT22;2578;51.622;7.046;2023-05-07T13:19:13;23.50;1.00
5118;DHT22;2578;51.622;7.046;2023-05-07T13:21:39;23.30;1.00
5118;DHT22;2578;51.622;7.046;2023-05-07T13:24:05;23.10;1.00
5118;DHT22;2578;51.622;7.046;2023-05-07T13:26:31;23.00;1.00
5118;DHT22;2578;51.622;7.046;2023-05-07T13:28:57;23.00;1.00
5118;DHT22;2578;51.622;7.046;2023-05-07T13:31:23;23.00;1.00
5118;DHT22;2578;51.622;7.046;2023-05-07T13:33:48;22.90;1.00
5118;DHT22;2578;51.622;7.046;2023-05-07T13:36:14;22.80;1.00
5118;DHT22;2578;51.622;7.046;2023-05-07T13:38:40;22.70;1.00
5118;DHT22;2578;51.622;7.046;2023-05-07T13:41:06;22.40;1.00
5118;DHT22;2578;51.622;7.046;2023-05-07T13:43:31;22.20;1.00
5118;DHT22;2578;51.622;7.046;2023-05-07T13:45:59;22.10;1.00
5118;DHT22;2578;51.622;7.046;2023-05-07T13:48:26;22.00;1.00
5118;DHT22;2578;51.622;7.046;2023-05-07T13:50:53;21.80;1.00
5118;DHT22;2578;51.622;7.046;2023-05-07T13:53:19;21.70;1.00
5118;DHT22;2578;51.622;7.046;2023-05-07T13:55:45;21.60;1.00
5118;DHT22;2578;51.622;7.046;2023-05-07T13:58:11;21.40;1.00
5118;DHT22;2578;51.622;7.046;2023-05-07T14:00:37;21.20;1.00
5118;DHT22;2578;51.622;7.046;2023-05-07T14:03:04;21.10;1.00
5118;DHT22;2578;51.622;7.046;2023-05-07T14:05:30;21.10;1.00
5118;DHT22;2578;51.622;7.046;2023-05-07T14:07:59;21.10;1.00
5118;DHT22;2578;51.622;7.046;2023-05-07T14:10:25;21.00;1.00
5118;DHT22;2578;51.622;7.046;2023-05-07T14:12:51;20.90;1.00
5118;DHT22;2578;51.622;7.046;2023-05-07T14:15:18;20.70;1.00
5118;DHT22;2578;51.622;7.046;2023-05-07T14:17:44;20.70;1.00
5118;DHT22;2578;51.622;7.046;2023-05-07T14:20:10;20.40;1.00
5118;DHT22;2578;51.622;7.046;2023-05-07T14:22:36;20.40;1.00
5118;DHT22;2578;51.622;7.046;2023-05-07T14:25:02;20.30;1.00
5118;DHT22;2578;51.622;7.046;2023-05-07T14:27:27;20.20;1.00
5118;DHT22;2578;51.622;7.046;2023-05-07T14:29:53;20.20;1.00
5118;DHT22;2578;51.622;7.046;2023-05-07T14:32:19;20.20;1.00
5118;DHT22;2578;51.622;7.046;2023-05-07T14:34:45;20.30;1.00
5118;DHT22;2578;51.622;7.046;2023-05-07T14:37:10;20.30;1.00
5118;DHT22;2578;51.622;7.046;2023-05-07T14:39:36;20.20;1.00
5118;DHT22;2578;51.622;7.046;2023-05-07T14:42:01;20.20;1.00
5118;DHT22;2578;51.622;7.046;2023-05-07T14:44:27;20.10;1.00
5118;DHT22;2578;51.622;7.046;2023-05-07T14:46:53;20.00;1.00
5118;DHT22;2578;51.622;7.046;2023-05-07T14:49:18;20.00;1.00
5118;DHT22;2578;51.622;7.046;2023-05-07T14:51:45;19.90;1.00
5118;DHT22;2578;51.622;7.046;2023-05-07T14:54:11;19.90;1.00
5118;DHT22;2578;51.622;7.046;2023-05-07T14:56:37;20.00;1.00
5118;DHT22;2578;51.622;7.046;2023-05-07T14:59:03;20.00;1.00
5118;DHT22;2578;51.622;7.046;2023-05-07T15:01:29;20.10;1.00
5118;DHT22;2578;51.622;7.046;2023-05-07T15:03:55;20.20;1.00
5118;DHT22;2578;51.622;7.046;2023-05-07T15:06:21;20.20;1.00
5118;DHT22;2578;51.622;7.046;2023-05-07T15:08:47;20.30;1.00
5118;DHT22;2578;51.622;7.046;2023-05-07T15:11:14;20.20;1.00
5118;DHT22;2578;51.622;7.046;2023-05-07T15:13:41;20.20;1.00
5118;DHT22;2578;51.622;7.046;2023-05-07T15:16:06;20.10;1.00
5118;DHT22;2578;51.622;7.046;2023-05-07T15:18:32;20.00;1.00
5118;DHT22;2578;51.622;7.046;2023-05-07T15:20:58;20.00;1.00
5118;DHT22;2578;51.622;7.046;2023-05-07T15:23:23;20.00;1.00
5118;DHT22;2578;51.622;7.046;2023-05-07T15:25:49;20.00;1.00
5118;DHT22;2578;51.622;7.046;2023-05-07T15:28:15;20.00;1.00
5118;DHT22;2578;51.622;7.046;2023-05-07T15:30:41;20.10;1.00
5118;DHT22;2578;51.622;7.046;2023-05-07T15:33:06;20.20;1.00
5118;DHT22;2578;51.622;7.046;2023-05-07T15:35:32;20.20;1.00
5118;DHT22;2578;51.622;7.046;2023-05-07T15:37:58;20.20;1.00
5118;DHT22;2578;51.622;7.046;2023-05-07T15:40:24;20.30;1.00
5118;DHT22;2578;51.622;7.046;2023-05-07T15:42:50;20.30;1.00
5118;DHT22;2578;51.622;7.046;2023-05-07T15:45:20;20.40;1.00
5118;DHT22;2578;51.622;7.046;2023-05-07T15:47:46;20.60;1.00
5118;DHT22;2578;51.622;7.046;2023-05-07T15:50:11;20.80;1.00
5118;DHT22;2578;51.622;7.046;2023-05-07T15:52:47;20.80;1.00
5118;DHT22;2578;51.622;7.046;2023-05-07T15:55:25;20.90;1.00
5118;DHT22;2578;51.622;7.046;2023-05-07T15:57:52;20.90;1.00
5118;DHT22;2578;51.622;7.046;2023-05-07T16:00:28;21.00;1.00
5118;DHT22;2578;51.622;7.046;2023-05-07T16:02:56;21.00;1.00
5118;DHT22;2578;51.622;7.046;2023-05-07T16:05:36;21.10;1.00
5118;DHT22;2578;51.622;7.046;2023-05-07T16:08:09;21.10;1.00
5118;DHT22;2578;51.622;7.046;2023-05-07T16:10:38;21.20;1.00
5118;DHT22;2578;51.622;7.046;2023-05-07T16:13:27;21.20;1.00
5118;DHT22;2578;51.622;7.046;2023-05-07T16:16:18;21.10;1.00
5118;DHT22;2578;51.622;7.046;2023-05-07T16:19:00;21.20;1.00
5118;DHT22;2578;51.622;7.046;2023-05-07T16:21:26;21.30;1.00
5118;DHT22;2578;51.622;7.046;2023-05-07T16:23:52;21.40;1.00
5118;DHT22;2578;51.622;7.046;2023-05-07T16:27:07;21.40;1.00